sensor_id;sensor_type;location;lat;lon;timestamp;temperature;humidity
20985;DHT22;10651;47.552;7.606;2024-03-02T07:04:24;7.10;99.90
20985;DHT22;10651;47.552;7.606;2024-03-02T07:06:49;7.10;99.90
20985;DHT22;10651;47.552;7.606;2024-03-02T07:09:16;7.20;99.90
20985;DHT22;10651;47.552;7.606;2024-03-02T07:11:42;7.60;99.90
20985;DHT22;10651;47.552;7.606;2024-03-02T07:14:07;7.90;99.90
20985;DHT22;10651;47.552;7.606;2024-03-02T07:16:33;7.90;99.90
20985;DHT22;10651;47.552;7.606;2024-03-02T07:19:00;8.00;99.90
20985;DHT22;10651;47.552;7.606;2024-03-02T07:21:27;7.90;99.90
20985;DHT22;10651;47.552;7.606;2024-03-02T07:23:53;7.70;99.90
20985;DHT22;10651;47.552;7.606;2024-03-02T07:26:19;7.60;99.90
20985;DHT22;10651;47.552;7.606;2024-03-02T07:28:48;7.50;99.90
20985;DHT22;10651;47.552;7.606;2024-03-02T07:31:14;7.60;99.90
20985;DHT22;10651;47.552;7.606;2024-03-02T07:33:40;8.30;99.90
20985;DHT22;10651;47.552;7.606;2024-03-02T07:36:07;8.80;99.90
20985;DHT22;10651;47.552;7.606;2024-03-02T07:38:33;9.20;99.90
20985;DHT22;10651;47.552;7.606;2024-03-02T07:41:00;9.30;99.90
20985;DHT22;10651;47.552;7.606;2024-03-02T07:43:26;8.70;99.90
20985;DHT22;10651;47.552;7.606;2024-03-02T07:45:52;8.40;99.90
20985;DHT22;10651;47.552;7.606;2024-03-02T07:51:13;8.10;99.90
20985;DHT22;10651;47.552;7.606;2024-03-02T07:56:38;8.10;99.90
20985;DHT22;10651;47.552;7.606;2024-03-02T07:59:04;8.00;99.90
20985;DHT22;10651;47.552;7.606;2024-03-02T08:01:31;7.80;99.90
20985;DHT22;10651;47.552;7.606;2024-03-02T08:03:58;7.80;99.90
20985;DHT22;10651;47.552;7.606;2024-03-02T08:06:28;7.80;99.90
20985;DHT22;10651;47.552;7.606;2024-03-02T08:08:58;7.80;99.90
20985;DHT22;10651;47.552;7.606;2024-03-02T08:11:24;7.80;99.90
20985;DHT22;10651;47.552;7.606;2024-03-02T08:13:50;7.90;99.90
20985;DHT22;10651;47.552;7.606;2024-03-02T08:16:16;7.90;99.90
20985;DHT22;10651;47.552;7.606;2024-03-02T08:18:42;7.90;99.90
20985;DHT22;10651;47.552;7.606;2024-03-02T08:21:08;7.90;99.90
20985;DHT22;10651;47.552;7.606;2024-03-02T08:23:34;8.00;99.90
20985;DHT22;10651;47.552;7.606;2024-03-02T08:26:00;8.10;99.90
20985;DHT22;10651;47.552;7.606;2024-03-02T08:28:26;8.00;99.90
20985;DHT22;10651;47.552;7.606;2024-03-02T08:30:52;8.00;99.90
20985;DHT22;10651;47.552;7.606;2024-03-02T08:33:17;8.10;99.90
20985;DHT22;10651;47.552;7.606;2024-03-02T08:35:43;8.20;99.90
20985;DHT22;10651;47.552;7.606;2024-03-02T08:38:09;8.30;99.90
20985;DHT22;10651;47.552;7.606;2024-03-02T08:40:35;8.50;99.90
20985;DHT22;10651;47.552;7.606;2024-03-02T08:43:01;8.90;99.90
20985;DHT22;10651;47.552;7.606;2024-03-02T08:45:27;9.00;99.90
20985;DHT22;10651;47.552;7.606;2024-03-02T08:47:52;9.20;99.90
20985;DHT22;10651;47.552;7.606;2024-03-02T08:50:18;9.00;99.90
20985;DHT22;10651;47.552;7.606;2024-03-02T08:52:47;9.10;99.90
20985;DHT22;10651;47.552;7.606;2024-03-02T08:55:12;9.30;99.90
20985;DHT22;10651;47.552;7.606;2024-03-02T08:57:38;9.30;99.90
20985;DHT22;10651;47.552;7.606;2024-03-02T09:00:05;9.30;99.90
20985;DHT22;10651;47.552;7.606;2024-03-02T09:02:31;9.20;99.90
20985;DHT22;10651;47.552;7.606;2024-03-02T09:05:03;9.30;99.90
20985;DHT22;10651;47.552;7.606;2024-03-02T09:07:36;9.50;99.90
20985;DHT22;10651;47.552;7.606;2024-03-02T09:10:12;9.40;99.90
20985;DHT22;10651;47.552;7.606;2024-03-02T09:12:38;9.60;99.90
20985;DHT22;10651;47.552;7.606;2024-03-02T09:15:07;10.00;99.90
20985;DHT22;10651;47.552;7.606;2024-03-02T09:17:34;9.60;99.90
20985;DHT22;10651;47.552;7.606;2024-03-02T09:20:00;9.60;99.90
20985;DHT22;10651;47.552;7.606;2024-03-02T09:22:26;9.90;99.90
20985;DHT22;10651;47.552;7.606;2024-03-02T09:24:51;10.30;99.90
20985;DHT22;10651;47.552;7.606;2024-03-02T09:27:17;10.20;99.90
20985;DHT22;10651;47.552;7.606;2024-03-02T09:29:45;10.10;99.90
20985;DHT22;10651;47.552;7.606;2024-03-02T09:32:13;10.20;99.90
20985;DHT22;10651;47.552;7.606;2024-03-02T09:34:40;10.40;99.90
20985;DHT22;10651;47.552;7.606;2024-03-02T09:37:06;10.50;99.90
20985;DHT22;10651;47.552;7.606;2024-03-02T09:39:32;10.70;99.90
20985;DHT22;10651;47.552;7.606;2024-03-02T09:41:59;10.80;99.90
20985;DHT22;10651;47.552;7.606;2024-03-02T09:44:25;11.20;99.90
20985;DHT22;10651;47.552;7.606;2024-03-02T09:46:51;11.80;99.90
20985;DHT22;10651;47.552;7.606;2024-03-02T09:49:17;12.10;99.90
20985;DHT22;10651;47.552;7.606;2024-03-02T09:51:49;12.90;99.90
20985;DHT22;10651;47.552;7.606;2024-03-02T09:54:18;13.50;99.90
20985;DHT22;10651;47.552;7.606;2024-03-02T09:56:46;13.80;99.90
20985;DHT22;10651;47.552;7.606;2024-03-02T09:59:12;15.00;99.90
20985;DHT22;10651;47.552;7.606;2024-03-02T10:01:58;19.80;99.90
20985;DHT22;10651;47.552;7.606;2024-03-02T10:04:25;20.40;99.90
20985;DHT22;10651;47.552;7.606;2024-03-02T10:06:52;21.50;99.90
20985;DHT22;10651;47.552;7.606;2024-03-02T10:09:30;22.70;99.90
20985;DHT22;10651;47.552;7.606;2024-03-02T10:12:04;23.50;99.90
20985;DHT22;10651;47.552;7.606;2024-03-02T10:14:30;25.00;99.90
20985;DHT22;10651;47.552;7.606;2024-03-02T10:17:04;25.10;99.90
20985;DHT22;10651;47.552;7.606;2024-03-02T10:19:30;23.90;99.90
20985;DHT22;10651;47.552;7.606;2024-03-02T10:21:59;24.80;99.90
20985;DHT22;10651;47.552;7.606;2024-03-02T10:24:25;24.80;98.70
20985;DHT22;10651;47.552;7.606;2024-03-02T10:26:51;25.00;97.70
20985;DHT22;10651;47.552;7.606;2024-03-02T10:29:18;25.80;97.50
20985;DHT22;10651;47.552;7.606;2024-03-02T10:31:45;25.30;96.10
20985;DHT22;10651;47.552;7.606;2024-03-02T10:34:14;25.10;96.90
20985;DHT22;10651;47.552;7.606;2024-03-02T10:36:42;24.90;95.80
20985;DHT22;10651;47.552;7.606;2024-03-02T10:39:09;24.70;95.00
20985;DHT22;10651;47.552;7.606;2024-03-02T10:41:38;24.10;95.20
20985;DHT22;10651;47.552;7.606;2024-03-02T10:44:08;23.60;95.60
20985;DHT22;10651;47.552;7.606;2024-03-02T10:46:36;22.70;96.10
20985;DHT22;10651;47.552;7.606;2024-03-02T10:49:04;22.60;96.50
20985;DHT22;10651;47.552;7.606;2024-03-02T10:51:32;23.70;97.40
20985;DHT22;10651;47.552;7.606;2024-03-02T10:53:59;26.20;94.50
20985;DHT22;10651;47.552;7.606;2024-03-02T10:56:31;28.10;92.20
20985;DHT22;10651;47.552;7.606;2024-03-02T11:01:48;25.30;90.20
20985;DHT22;10651;47.552;7.606;2024-03-02T11:04:17;23.50;92.10
20985;DHT22;10651;47.552;7.606;2024-03-02T11:09:28;22.30;94.10
20985;DHT22;10651;47.552;7.606;2024-03-02T11:14:40;24.30;93.40
20985;DHT22;10651;47.552;7.606;2024-03-02T11:17:09;27.10;92.40
20985;DHT22;10651;47.552;7.606;2024-03-02T11:19:40;30.60;86.90
20985;DHT22;10651;47.552;7.606;2024-03-02T11:22:07;30.30;80.70
20985;DHT22;10651;47.552;7.606;2024-03-02T11:24:34;29.80;81.10
20985;DHT22;10651;47.552;7.606;2024-03-02T11:27:04;32.50;83.00
20985;DHT22;10651;47.552;7.606;2024-03-02T11:32:22;32.50;70.70
20985;DHT22;10651;47.552;7.606;2024-03-02T11:34:51;29.70;74.80
20985;DHT22;10651;47.552;7.606;2024-03-02T11:37:18;29.40;76.20
20985;DHT22;10651;47.552;7.606;2024-03-02T11:39:45;29.20;74.20
20985;DHT22;10651;47.552;7.606;2024-03-02T11:42:11;27.60;76.20
20985;DHT22;10651;47.552;7.606;2024-03-02T11:44:42;25.50;79.80
20985;DHT22;10651;47.552;7.606;2024-03-02T11:47:12;25.40;84.30
20985;DHT22;10651;47.552;7.606;2024-03-02T11:49:43;25.40;81.40
20985;DHT22;10651;47.552;7.606;2024-03-02T11:52:11;24.30;82.00
20985;DHT22;10651;47.552;7.606;2024-03-02T11:54:38;23.70;83.50
20985;DHT22;10651;47.552;7.606;2024-03-02T11:57:16;22.40;86.50
20985;DHT22;10651;47.552;7.606;2024-03-02T11:59:42;21.00;89.50
20985;DHT22;10651;47.552;7.606;2024-03-02T12:02:15;20.50;91.10
20985;DHT22;10651;47.552;7.606;2024-03-02T12:04:42;21.40;90.20
20985;DHT22;10651;47.552;7.606;2024-03-02T12:07:11;22.10;90.30
20985;DHT22;10651;47.552;7.606;2024-03-02T12:09:38;21.80;90.20
20985;DHT22;10651;47.552;7.606;2024-03-02T12:12:05;22.00;90.90
20985;DHT22;10651;47.552;7.606;2024-03-02T12:14:32;20.50;91.30
20985;DHT22;10651;47.552;7.606;2024-03-02T12:16:58;19.80;92.70
20985;DHT22;10651;47.552;7.606;2024-03-02T12:19:25;18.60;93.50
20985;DHT22;10651;47.552;7.606;2024-03-02T12:21:58;17.90;94.80
20985;DHT22;10651;47.552;7.606;2024-03-02T12:24:28;17.50;96.20
20985;DHT22;10651;47.552;7.606;2024-03-02T12:26:54;17.30;96.50
20985;DHT22;10651;47.552;7.606;2024-03-02T12:29:21;17.20;97.80
20985;DHT22;10651;47.552;7.606;2024-03-02T12:31:51;17.00;98.10
20985;DHT22;10651;47.552;7.606;2024-03-02T12:34:21;16.80;99.00
20985;DHT22;10651;47.552;7.606;2024-03-02T12:36:48;16.60;99.40
20985;DHT22;10651;47.552;7.606;2024-03-02T12:39:19;16.60;99.90
20985;DHT22;10651;47.552;7.606;2024-03-02T12:41:46;16.60;99.90
20985;DHT22;10651;47.552;7.606;2024-03-02T12:44:12;16.70;99.90
20985;DHT22;10651;47.552;7.606;2024-03-02T12:46:37;16.50;99.90
20985;DHT22;10651;47.552;7.606;2024-03-02T12:49:11;16.20;99.90
20985;DHT22;10651;47.552;7.606;2024-03-02T12:51:39;16.10;99.90
20985;DHT22;10651;47.552;7.606;2024-03-02T12:54:10;16.10;99.90
20985;DHT22;10651;47.552;7.606;2024-03-02T12:56:41;15.90;99.90
20985;DHT22;10651;47.552;7.606;2024-03-02T12:59:21;16.20;99.90
20985;DHT22;10651;47.552;7.606;2024-03-02T13:01:51;16.40;99.90
20985;DHT22;10651;47.552;7.606;2024-03-02T13:04:22;16.50;99.90
20985;DHT22;10651;47.552;7.606;2024-03-02T13:06:48;16.40;99.90
20985;DHT22;10651;47.552;7.606;2024-03-02T13:09:14;16.30;99.90
20985;DHT22;10651;47.552;7.606;2024-03-02T13:11:41;16.30;99.90
20985;DHT22;10651;47.552;7.606;2024-03-02T13:14:08;16.10;99.90
20985;DHT22;10651;47.552;7.606;2024-03-02T13:16:39;16.00;99.90
20985;DHT22;10651;47.552;7.606;2024-03-02T13:19:09;16.00;99.90
20985;DHT22;10651;47.552;7.606;2024-03-02T13:21:34;15.70;99.90
20985;DHT22;10651;47.552;7.606;2024-03-02T13:24:00;16.00;99.90
20985;DHT22;10651;47.552;7.606;2024-03-02T13:26:26;15.70;99.90
20985;DHT22;10651;47.552;7.606;2024-03-02T13:28:53;15.60;99.90
20985;DHT22;10651;47.552;7.606;2024-03-02T13:31:18;15.70;99.90
20985;DHT22;10651;47.552;7.606;2024-03-02T13:33:44;15.50;99.90
20985;DHT22;10651;47.552;7.606;2024-03-02T13:36:10;15.40;99.90
20985;DHT22;10651;47.552;7.606;2024-03-02T13:38:35;15.40;99.90
20985;DHT22;10651;47.552;7.606;2024-03-02T13:41:01;15.20;99.90
20985;DHT22;10651;47.552;7.606;2024-03-02T13:43:27;15.20;99.90
20985;DHT22;10651;47.552;7.606;2024-03-02T13:45:57;15.10;99.90
20985;DHT22;10651;47.552;7.606;2024-03-02T13:48:23;15.10;99.90
20985;DHT22;10651;47.552;7.606;2024-03-02T13:50:51;15.00;99.90
20985;DHT22;10651;47.552;7.606;2024-03-02T13:53:19;15.00;99.90
20985;DHT22;10651;47.552;7.606;2024-03-02T13:55:45;15.00;99.90
20985;DHT22;10651;47.552;7.606;2024-03-02T13:58:11;14.90;99.90
20985;DHT22;10651;47.552;7.606;2024-03-02T14:00:39;14.70;99.90
20985;DHT22;10651;47.552;7.606;2024-03-02T14:03:08;14.70;99.90
20985;DHT22;10651;47.552;7.606;2024-03-02T14:05:34;14.70;99.90
20985;DHT22;10651;47.552;7.606;2024-03-02T14:08:00;14.80;99.90
20985;DHT22;10651;47.552;7.606;2024-03-02T14:10:29;14.70;99.90
20985;DHT22;10651;47.552;7.606;2024-03-02T14:12:55;14.70;99.90
20985;DHT22;10651;47.552;7.606;2024-03-02T14:15:21;14.70;99.90
20985;DHT22;10651;47.552;7.606;2024-03-02T14:17:47;14.70;99.90
20985;DHT22;10651;47.552;7.606;2024-03-02T14:20:12;14.60;99.90
20985;DHT22;10651;47.552;7.606;2024-03-02T14:22:39;14.70;99.90
20985;DHT22;10651;47.552;7.606;2024-03-02T14:25:05;14.70;99.90
20985;DHT22;10651;47.552;7.606;2024-03-02T14:27:31;14.60;99.90
20985;DHT22;10651;47.552;7.606;2024-03-02T14:29:57;14.50;99.90
20985;DHT22;10651;47.552;7.606;2024-03-02T14:32:23;14.50;99.90
20985;DHT22;10651;47.552;7.606;2024-03-02T14:34:49;14.50;99.90
20985;DHT22;10651;47.552;7.606;2024-03-02T14:37:17;14.40;99.90
20985;DHT22;10651;47.552;7.606;2024-03-02T14:39:43;14.40;99.90
20985;DHT22;10651;47.552;7.606;2024-03-02T14:42:09;14.30;99.90
20985;DHT22;10651;47.552;7.606;2024-03-02T14:44:35;14.40;99.90
20985;DHT22;10651;47.552;7.606;2024-03-02T14:47:03;14.50;99.90
20985;DHT22;10651;47.552;7.606;2024-03-02T14:49:30;14.60;99.90
20985;DHT22;10651;47.552;7.606;2024-03-02T14:51:56;15.00;99.90
20985;DHT22;10651;47.552;7.606;2024-03-02T14:54:22;15.50;99.90
20985;DHT22;10651;47.552;7.606;2024-03-02T14:56:47;16.00;99.90
20985;DHT22;10651;47.552;7.606;2024-03-02T14:59:13;16.20;99.90
20985;DHT22;10651;47.552;7.606;2024-03-02T15:01:42;16.10;99.90
20985;DHT22;10651;47.552;7.606;2024-03-02T15:04:07;16.30;99.90
20985;DHT22;10651;47.552;7.606;2024-03-02T15:06:33;16.70;99.90
20985;DHT22;10651;47.552;7.606;2024-03-02T15:08:58;16.90;99.90
20985;DHT22;10651;47.552;7.606;2024-03-02T15:11:24;16.70;99.90
20985;DHT22;10651;47.552;7.606;2024-03-02T15:13:50;16.80;99.90
20985;DHT22;10651;47.552;7.606;2024-03-02T15:16:16;17.40;99.90
20985;DHT22;10651;47.552;7.606;2024-03-02T15:18:42;17.50;99.90
20985;DHT22;10651;47.552;7.606;2024-03-02T15:21:08;16.80;99.90
20985;DHT22;10651;47.552;7.606;2024-03-02T15:23:33;16.60;99.90
20985;DHT22;10651;47.552;7.606;2024-03-02T15:26:02;16.40;99.90
20985;DHT22;10651;47.552;7.606;2024-03-02T15:28:28;16.30;99.90
20985;DHT22;10651;47.552;7.606;2024-03-02T15:30:54;16.10;99.90
20985;DHT22;10651;47.552;7.606;2024-03-02T15:33:26;16.00;99.90
20985;DHT22;10651;47.552;7.606;2024-03-02T15:35:58;15.60;99.90
20985;DHT22;10651;47.552;7.606;2024-03-02T15:38:24;15.50;99.90
20985;DHT22;10651;47.552;7.606;2024-03-02T15:40:49;15.40;99.90
20985;DHT22;10651;47.552;7.606;2024-03-02T15:43:15;15.20;99.90
20985;DHT22;10651;47.552;7.606;2024-03-02T15:45:41;15.20;99.90
20985;DHT22;10651;47.552;7.606;2024-03-02T15:48:07;15.30;99.90
20985;DHT22;10651;47.552;7.606;2024-03-02T15:50:32;15.10;99.90
20985;DHT22;10651;47.552;7.606;2024-03-02T15:52:58;15.10;99.90
20985;DHT22;10651;47.552;7.606;2024-03-02T15:55:29;15.10;99.90
20985;DHT22;10651;47.552;7.606;2024-03-02T15:57:54;15.10;99.90
20985;DHT22;10651;47.552;7.606;2024-03-02T16:00:20;15.10;99.90
20985;DHT22;10651;47.552;7.606;2024-03-02T16:02:47;15.00;99.90
20985;DHT22;10651;47.552;7.606;2024-03-02T16:05:13;14.80;99.90
20985;DHT22;10651;47.552;7.606;2024-03-02T16:07:38;14.80;99.90
20985;DHT22;10651;47.552;7.606;2024-03-02T16:10:05;14.80;99.90
20985;DHT22;10651;47.552;7.606;2024-03-02T16:12:33;14.80;99.90
20985;DHT22;10651;47.552;7.606;2024-03-02T16:14:58;14.70;99.90
20985;DHT22;10651;47.552;7.606;2024-03-02T16:17:24;14.70;99.90
20985;DHT22;10651;47.552;7.606;2024-03-02T16:19:50;14.60;99.90
20985;DHT22;10651;47.552;7.606;2024-03-02T16:22:16;14.50;99.90
20985;DHT22;10651;47.552;7.606;2024-03-02T16:24:41;14.30;99.90
20985;DHT22;10651;47.552;7.606;2024-03-02T16:27:07;14.30;99.90
20985;DHT22;10651;47.552;7.606;2024-03-02T16:29:34;14.20;99.90
20985;DHT22;10651;47.552;7.606;2024-03-02T16:31:59;14.10;99.90
20985;DHT22;10651;47.552;7.606;2024-03-02T16:34:28;14.00;99.90
20985;DHT22;10651;47.552;7.606;2024-03-02T16:36:57;13.90;99.90
20985;DHT22;10651;47.552;7.606;2024-03-02T16:39:23;13.80;99.90
20985;DHT22;10651;47.552;7.606;2024-03-02T16:44:33;13.70;99.90
20985;DHT22;10651;47.552;7.606;2024-03-02T16:46:59;13.70;99.90
20985;DHT22;10651;47.552;7.606;2024-03-02T16:49:24;13.80;99.90
20985;DHT22;10651;47.552;7.606;2024-03-02T16:51:50;13.80;99.90
20985;DHT22;10651;47.552;7.606;2024-03-02T16:54:16;13.70;99.90
20985;DHT22;10651;47.552;7.606;2024-03-02T16:56:45;13.60;99.90
20985;DHT22;10651;47.552;7.606;2024-03-02T16:59:11;13.60;99.90
20985;DHT22;10651;47.552;7.606;2024-03-02T17:01:37;13.50;99.90
20985;DHT22;10651;47.552;7.606;2024-03-02T17:04:03;13.50;99.90
20985;DHT22;10651;47.552;7.606;2024-03-02T17:06:31;13.50;99.90
20985;DHT22;10651;47.552;7.606;2024-03-02T17:08:57;13.50;99.90
20985;DHT22;10651;47.552;7.606;2024-03-02T17:11:23;13.40;99.90
20985;DHT22;10651;47.552;7.606;2024-03-02T17:13:52;13.40;99.90
20985;DHT22;10651;47.552;7.606;2024-03-02T17:16:25;13.30;99.90
20985;DHT22;10651;47.552;7.606;2024-03-02T17:18:52;13.30;99.90
20985;DHT22;10651;47.552;7.606;2024-03-02T17:21:17;13.30;99.90
20985;DHT22;10651;47.552;7.606;2024-03-02T17:23:43;13.20;99.90
20985;DHT22;10651;47.552;7.606;2024-03-02T17:26:09;13.10;99.90
20985;DHT22;10651;47.552;7.606;2024-03-02T17:28:34;13.10;99.90
20985;DHT22;10651;47.552;7.606;2024-03-02T17:31:00;13.10;99.90
20985;DHT22;10651;47.552;7.606;2024-03-02T17:33:26;13.20;99.90
20985;DHT22;10651;47.552;7.606;2024-03-02T17:35:51;13.10;99.90
20985;DHT22;10651;47.552;7.606;2024-03-02T17:38:18;13.10;99.90
20985;DHT22;10651;47.552;7.606;2024-03-02T17:40:44;13.10;99.90
20985;DHT22;10651;47.552;7.606;2024-03-02T17:43:10;13.10;99.90
20985;DHT22;10651;47.552;7.606;2024-03-02T17:45:37;13.00;99.90
20985;DHT22;10651;47.552;7.606;2024-03-02T17:48:03;13.00;99.90
20985;DHT22;10651;47.552;7.606;2024-03-02T17:50:29;12.90;99.90
20985;DHT22;10651;47.552;7.606;2024-03-02T17:52:55;12.80;99.90
20985;DHT22;10651;47.552;7.606;2024-03-02T17:55:21;12.80;99.90
20985;DHT22;10651;47.552;7.606;2024-03-02T17:57:47;12.70;99.90
20985;DHT22;10651;47.552;7.606;2024-03-02T18:00:15;12.70;99.90
20985;DHT22;10651;47.552;7.606;2024-03-02T18:02:41;12.80;99.90
20985;DHT22;10651;47.552;7.606;2024-03-02T18:05:07;12.70;99.90
20985;DHT22;10651;47.552;7.606;2024-03-02T18:07:34;12.70;99.90
20985;DHT22;10651;47.552;7.606;2024-03-02T18:10:02;12.70;99.90
20985;DHT22;10651;47.552;7.606;2024-03-02T18:12:28;12.80;99.90
20985;DHT22;10651;47.552;7.606;2024-03-02T18:14:54;12.70;99.90
20985;DHT22;10651;47.552;7.606;2024-03-02T18:17:20;12.70;99.90
20985;DHT22;10651;47.552;7.606;2024-03-02T18:19:46;12.80;99.90
20985;DHT22;10651;47.552;7.606;2024-03-02T18:22:18;12.70;99.90
20985;DHT22;10651;47.552;7.606;2024-03-02T18:24:45;12.70;99.90
20985;DHT22;10651;47.552;7.606;2024-03-02T18:27:15;12.70;99.90
20985;DHT22;10651;47.552;7.606;2024-03-02T18:30:07;12.70;99.90
20985;DHT22;10651;47.552;7.606;2024-03-02T18:36:50;12.70;99.90
20985;DHT22;10651;47.552;7.606;2024-03-02T18:42:57;12.70;99.90
20985;DHT22;10651;47.552;7.606;2024-03-02T18:45:44;12.60;99.90
20985;DHT22;10651;47.552;7.606;2024-03-02T18:48:40;12.60;99.90
20985;DHT22;10651;47.552;7.606;2024-03-02T18:54:43;12.60;99.90
20985;DHT22;10651;47.552;7.606;2024-03-02T18:57:14;12.60;99.90
20985;DHT22;10651;47.552;7.606;2024-03-02T18:59:43;12.60;99.90
20985;DHT22;10651;47.552;7.606;2024-03-02T19:02:10;12.60;99.90
20985;DHT22;10651;47.552;7.606;2024-03-02T19:04:37;12.60;99.90
20985;DHT22;10651;47.552;7.606;2024-03-02T19:07:14;12.60;99.90
20985;DHT22;10651;47.552;7.606;2024-03-02T19:10:00;12.50;99.90
20985;DHT22;10651;47.552;7.606;2024-03-02T19:12:30;12.50;99.90
20985;DHT22;10651;47.552;7.606;2024-03-02T19:14:56;12.40;99.90
20985;DHT22;10651;47.552;7.606;2024-03-02T19:17:21;12.40;99.90
20985;DHT22;10651;47.552;7.606;2024-03-02T19:19:47;12.50;99.90
20985;DHT22;10651;47.552;7.606;2024-03-02T19:22:13;12.60;99.90
20985;DHT22;10651;47.552;7.606;2024-03-02T19:24:38;12.50;99.90
20985;DHT22;10651;47.552;7.606;2024-03-02T19:27:05;12.50;99.90
20985;DHT22;10651;47.552;7.606;2024-03-02T19:29:31;12.50;99.90
20985;DHT22;10651;47.552;7.606;2024-03-02T19:31:57;12.60;99.90
20985;DHT22;10651;47.552;7.606;2024-03-02T19:34:24;12.60;99.90
20985;DHT22;10651;47.552;7.606;2024-03-02T19:36:51;12.60;99.90
20985;DHT22;10651;47.552;7.606;2024-03-02T19:39:17;12.60;99.90
20985;DHT22;10651;47.552;7.606;2024-03-02T19:41:54;12.50;99.90
20985;DHT22;10651;47.552;7.606;2024-03-02T19:44:21;12.50;99.90
20985;DHT22;10651;47.552;7.606;2024-03-02T19:46:49;12.40;99.90
20985;DHT22;10651;47.552;7.606;2024-03-02T19:49:15;12.50;99.90
20985;DHT22;10651;47.552;7.606;2024-03-02T19:51:43;12.40;99.90
20985;DHT22;10651;47.552;7.606;2024-03-02T19:54:09;12.40;99.90
20985;DHT22;10651;47.552;7.606;2024-03-02T19:56:35;12.40;99.90
20985;DHT22;10651;47.552;7.606;2024-03-02T19:59:02;12.30;99.90
20985;DHT22;10651;47.552;7.606;2024-03-02T20:01:29;12.20;99.90
20985;DHT22;10651;47.552;7.606;2024-03-02T20:03:54;12.20;99.90
20985;DHT22;10651;47.552;7.606;2024-03-02T20:06:20;12.10;99.90
20985;DHT22;10651;47.552;7.606;2024-03-02T20:08:55;12.20;99.90
20985;DHT22;10651;47.552;7.606;2024-03-02T20:11:21;12.10;99.90
20985;DHT22;10651;47.552;7.606;2024-03-02T20:13:47;12.00;99.90
20985;DHT22;10651;47.552;7.606;2024-03-02T20:16:13;12.00;99.90
20985;DHT22;10651;47.552;7.606;2024-03-02T20:18:39;12.00;99.90
20985;DHT22;10651;47.552;7.606;2024-03-02T20:21:05;12.10;99.90
20985;DHT22;10651;47.552;7.606;2024-03-02T20:23:33;12.00;99.90
20985;DHT22;10651;47.552;7.606;2024-03-02T20:25:59;12.00;99.90
20985;DHT22;10651;47.552;7.606;2024-03-02T20:28:29;12.00;99.90
20985;DHT22;10651;47.552;7.606;2024-03-02T20:30:55;12.00;99.90
20985;DHT22;10651;47.552;7.606;2024-03-02T20:33:20;12.00;99.90
20985;DHT22;10651;47.552;7.606;2024-03-02T20:35:46;11.90;99.90
20985;DHT22;10651;47.552;7.606;2024-03-02T20:38:12;12.00;99.90
20985;DHT22;10651;47.552;7.606;2024-03-02T20:40:37;12.00;99.90
20985;DHT22;10651;47.552;7.606;2024-03-02T20:43:03;12.00;99.90
20985;DHT22;10651;47.552;7.606;2024-03-02T20:45:29;12.00;99.90
20985;DHT22;10651;47.552;7.606;2024-03-02T20:47:55;12.00;99.90
20985;DHT22;10651;47.552;7.606;2024-03-02T20:50:21;12.00;99.90
20985;DHT22;10651;47.552;7.606;2024-03-02T20:52:50;11.90;99.90
20985;DHT22;10651;47.552;7.606;2024-03-02T20:55:15;11.90;99.90
20985;DHT22;10651;47.552;7.606;2024-03-02T20:57:41;11.80;99.90
20985;DHT22;10651;47.552;7.606;2024-03-02T21:00:07;11.80;99.90
20985;DHT22;10651;47.552;7.606;2024-03-02T21:02:33;11.70;99.90
20985;DHT22;10651;47.552;7.606;2024-03-02T21:05:03;11.70;99.90
20985;DHT22;10651;47.552;7.606;2024-03-02T21:07:29;11.70;99.90
20985;DHT22;10651;47.552;7.606;2024-03-02T21:09:55;11.70;99.90
20985;DHT22;10651;47.552;7.606;2024-03-02T21:12:22;11.70;99.90
20985;DHT22;10651;47.552;7.606;2024-03-02T21:14:48;11.70;99.90
20985;DHT22;10651;47.552;7.606;2024-03-02T21:17:14;11.70;99.90
20985;DHT22;10651;47.552;7.606;2024-03-02T21:19:39;11.70;99.90
20985;DHT22;10651;47.552;7.606;2024-03-02T21:22:05;11.70;99.90
20985;DHT22;10651;47.552;7.606;2024-03-02T21:24:31;11.60;99.90
20985;DHT22;10651;47.552;7.606;2024-03-02T21:26:57;11.60;99.90
20985;DHT22;10651;47.552;7.606;2024-03-02T21:29:26;11.50;99.90
20985;DHT22;10651;47.552;7.606;2024-03-02T21:31:53;11.50;99.90
20985;DHT22;10651;47.552;7.606;2024-03-02T21:34:20;11.40;99.90
20985;DHT22;10651;47.552;7.606;2024-03-02T21:36:46;11.40;99.90
20985;DHT22;10651;47.552;7.606;2024-03-02T21:39:12;11.40;99.90
20985;DHT22;10651;47.552;7.606;2024-03-02T21:41:38;11.30;99.90
20985;DHT22;10651;47.552;7.606;2024-03-02T21:44:03;11.20;99.90
20985;DHT22;10651;47.552;7.606;2024-03-02T21:46:30;11.20;99.90
20985;DHT22;10651;47.552;7.606;2024-03-02T21:48:55;11.20;99.90
20985;DHT22;10651;47.552;7.606;2024-03-02T21:51:21;11.10;99.90
20985;DHT22;10651;47.552;7.606;2024-03-02T21:53:47;11.20;99.90
20985;DHT22;10651;47.552;7.606;2024-03-02T21:56:13;11.20;99.90
20985;DHT22;10651;47.552;7.606;2024-03-02T21:58:40;11.20;99.90
20985;DHT22;10651;47.552;7.606;2024-03-02T22:01:06;11.20;99.90
20985;DHT22;10651;47.552;7.606;2024-03-02T22:03:31;11.20;99.90
20985;DHT22;10651;47.552;7.606;2024-03-02T22:05:57;11.20;99.90
20985;DHT22;10651;47.552;7.606;2024-03-02T22:08:23;11.20;99.90
20985;DHT22;10651;47.552;7.606;2024-03-02T22:10:49;11.20;99.90
20985;DHT22;10651;47.552;7.606;2024-03-02T22:13:15;11.10;99.90
20985;DHT22;10651;47.552;7.606;2024-03-02T22:15:41;11.10;99.90
20985;DHT22;10651;47.552;7.606;2024-03-02T22:18:07;11.10;99.90
20985;DHT22;10651;47.552;7.606;2024-03-02T22:20:32;11.10;99.90
20985;DHT22;10651;47.552;7.606;2024-03-02T22:22:58;11.10;99.90
20985;DHT22;10651;47.552;7.606;2024-03-02T22:25:24;11.10;99.90
20985;DHT22;10651;47.552;7.606;2024-03-02T22:27:49;11.00;99.90
20985;DHT22;10651;47.552;7.606;2024-03-02T22:30:23;10.90;99.90
20985;DHT22;10651;47.552;7.606;2024-03-02T22:32:49;10.90;99.90
20985;DHT22;10651;47.552;7.606;2024-03-02T22:35:16;10.90;99.90
20985;DHT22;10651;47.552;7.606;2024-03-02T22:37:42;10.90;99.90
20985;DHT22;10651;47.552;7.606;2024-03-02T22:40:08;10.90;99.90
20985;DHT22;10651;47.552;7.606;2024-03-02T22:42:34;10.80;99.90
20985;DHT22;10651;47.552;7.606;2024-03-02T22:45:00;10.80;99.90
20985;DHT22;10651;47.552;7.606;2024-03-02T22:47:26;10.70;99.90
20985;DHT22;10651;47.552;7.606;2024-03-02T22:49:52;10.70;99.90
20985;DHT22;10651;47.552;7.606;2024-03-02T22:52:20;10.60;99.90
20985;DHT22;10651;47.552;7.606;2024-03-02T22:54:46;10.50;99.90
20985;DHT22;10651;47.552;7.606;2024-03-02T22:57:12;10.40;99.90
20985;DHT22;10651;47.552;7.606;2024-03-02T22:59:49;10.40;99.90
20985;DHT22;10651;47.552;7.606;2024-03-02T23:02:15;10.50;99.90
20985;DHT22;10651;47.552;7.606;2024-03-02T23:04:46;10.60;99.90
20985;DHT22;10651;47.552;7.606;2024-03-02T23:07:12;10.60;99.90